Forside
METAR-TAF:

METAR-TAF

Lufthavne :

Komatsu, Japan

Breddekreds: 36-23N, længdekreds: 136-25E, højde: 6 m

Aktuelle vejr

Denne rapport blev lavet for 1 time og 4 minutter siden, kl. 02:00 UTC
Vind 13 kt fra vest
Temperatur 23°C
Fugtighed 69%
Tryk 1011 hPa
Sigt 10 km eller mere
Nogle få skyer i en højde af 3000 ft
Spredte skyer i en højde af 4000 ft
Brudte skyer i en højde af 6000 ft

METAR: RJNK 250200Z 26013KT 9999 FEW030 SCT040 BKN060 23/17 Q1011

Tid: 12:04 (03:04 UTC)

Vejrudsigter

Denne rapport blev lavet for 3 timer og 57 minutter siden, kl. 23:07 UTC
Foreløbig gælder fra 25 på 00 UTC til 26 på 06 UTC
Vind 6 kt fra vest
Sigt 10 km eller mere
Nogle få skyer i en højde af 1500 ft
Spredte skyer i en højde af 4000 ft
Midlertidig
fra 25 på 18 UTC til 26 på 03 UTC
Nogle få skyer i en højde af 400 ft
Brudte skyer i en højde af 800 ft

TAF: RJNK 242307Z 2500/2606 27006KT 9999 FEW015 SCT040 TEMPO 2518/2603 FEW004 BKN008

Vejrobservationer og prognoser fra mere end 4000 lufthavne (METAR og TAF).

De gule og røde prikker repræsenterer de meteorologiske stationer.

Flyt musen over at se navnet på stationen.

Så klik over at se vejr observationer og prognoser.

At skifte det kort: Klik på de grønne knapper med et sort kors for at zoome ind; på den grønne knap med en bindestreg for at zoome ud; eller på de grønne pile for tilstødende kort.


METAR-TAF: